sensor_id;sensor_type;location;lat;lon;timestamp;temperature;humidity
3678;DHT22;1855;50.934;6.958;2023-07-13T00:00:58;18.20;57.30
3678;DHT22;1855;50.934;6.958;2023-07-13T00:03:24;18.10;57.80
3678;DHT22;1855;50.934;6.958;2023-07-13T00:05:57;18.10;57.70
3678;DHT22;1855;50.934;6.958;2023-07-13T00:08:24;18.00;58.20
3678;DHT22;1855;50.934;6.958;2023-07-13T00:10:52;18.00;58.50
3678;DHT22;1855;50.934;6.958;2023-07-13T00:13:20;18.00;58.70
3678;DHT22;1855;50.934;6.958;2023-07-13T00:15:48;17.90;59.30
3678;DHT22;1855;50.934;6.958;2023-07-13T00:18:15;17.90;59.10
3678;DHT22;1855;50.934;6.958;2023-07-13T00:20:41;17.90;60.00
3678;DHT22;1855;50.934;6.958;2023-07-13T00:23:09;17.80;59.40
3678;DHT22;1855;50.934;6.958;2023-07-13T00:25:35;17.80;59.70
3678;DHT22;1855;50.934;6.958;2023-07-13T00:28:02;17.80;60.30
3678;DHT22;1855;50.934;6.958;2023-07-13T00:30:29;17.80;59.70
3678;DHT22;1855;50.934;6.958;2023-07-13T00:32:57;17.80;60.00
3678;DHT22;1855;50.934;6.958;2023-07-13T00:35:26;17.70;60.10
3678;DHT22;1855;50.934;6.958;2023-07-13T00:37:53;17.70;61.30
3678;DHT22;1855;50.934;6.958;2023-07-13T00:40:19;17.70;62.20
3678;DHT22;1855;50.934;6.958;2023-07-13T00:42:46;17.80;60.70
3678;DHT22;1855;50.934;6.958;2023-07-13T00:48:20;17.80;61.00
3678;DHT22;1855;50.934;6.958;2023-07-13T00:50:50;17.70;61.00
3678;DHT22;1855;50.934;6.958;2023-07-13T00:53:19;17.70;61.30
3678;DHT22;1855;50.934;6.958;2023-07-13T00:55:47;17.60;61.50
3678;DHT22;1855;50.934;6.958;2023-07-13T00:58:15;17.50;62.00
3678;DHT22;1855;50.934;6.958;2023-07-13T01:00:42;17.50;62.70
3678;DHT22;1855;50.934;6.958;2023-07-13T01:03:08;17.40;62.10
3678;DHT22;1855;50.934;6.958;2023-07-13T01:05:36;17.40;63.10
3678;DHT22;1855;50.934;6.958;2023-07-13T01:08:04;17.40;62.60
3678;DHT22;1855;50.934;6.958;2023-07-13T01:10:31;17.30;63.00
3678;DHT22;1855;50.934;6.958;2023-07-13T01:13:04;17.30;63.10
3678;DHT22;1855;50.934;6.958;2023-07-13T01:15:36;17.30;63.80
3678;DHT22;1855;50.934;6.958;2023-07-13T01:18:03;17.30;63.60
3678;DHT22;1855;50.934;6.958;2023-07-13T01:20:31;17.30;63.40
3678;DHT22;1855;50.934;6.958;2023-07-13T01:23:04;17.20;63.70
3678;DHT22;1855;50.934;6.958;2023-07-13T01:25:33;17.10;63.70
3678;DHT22;1855;50.934;6.958;2023-07-13T01:28:00;17.10;64.20
3678;DHT22;1855;50.934;6.958;2023-07-13T01:30:27;17.10;64.40
3678;DHT22;1855;50.934;6.958;2023-07-13T01:32:54;17.00;65.10
3678;DHT22;1855;50.934;6.958;2023-07-13T01:35:20;17.00;64.80
3678;DHT22;1855;50.934;6.958;2023-07-13T01:37:47;17.00;64.80
3678;DHT22;1855;50.934;6.958;2023-07-13T01:40:15;16.90;65.30
3678;DHT22;1855;50.934;6.958;2023-07-13T01:42:42;16.90;65.30
3678;DHT22;1855;50.934;6.958;2023-07-13T01:45:10;16.90;65.30
3678;DHT22;1855;50.934;6.958;2023-07-13T01:47:36;16.90;66.10
3678;DHT22;1855;50.934;6.958;2023-07-13T01:50:04;16.90;65.90
3678;DHT22;1855;50.934;6.958;2023-07-13T01:52:31;16.80;66.00
3678;DHT22;1855;50.934;6.958;2023-07-13T01:54:57;16.80;66.50
3678;DHT22;1855;50.934;6.958;2023-07-13T01:57:25;16.80;66.60
3678;DHT22;1855;50.934;6.958;2023-07-13T01:59:52;16.80;66.70
3678;DHT22;1855;50.934;6.958;2023-07-13T02:02:19;16.80;66.90
3678;DHT22;1855;50.934;6.958;2023-07-13T02:04:46;16.70;67.30
3678;DHT22;1855;50.934;6.958;2023-07-13T02:07:12;16.70;67.40
3678;DHT22;1855;50.934;6.958;2023-07-13T02:09:40;16.70;67.50
3678;DHT22;1855;50.934;6.958;2023-07-13T02:12:07;16.70;67.90
3678;DHT22;1855;50.934;6.958;2023-07-13T02:14:36;16.60;68.80
3678;DHT22;1855;50.934;6.958;2023-07-13T02:17:03;16.60;69.40
3678;DHT22;1855;50.934;6.958;2023-07-13T02:19:30;16.60;69.30
3678;DHT22;1855;50.934;6.958;2023-07-13T02:21:57;16.60;69.50
3678;DHT22;1855;50.934;6.958;2023-07-13T02:24:23;16.70;69.90
3678;DHT22;1855;50.934;6.958;2023-07-13T02:26:50;16.70;68.90
3678;DHT22;1855;50.934;6.958;2023-07-13T02:29:17;16.60;70.10
3678;DHT22;1855;50.934;6.958;2023-07-13T02:31:45;16.60;69.60
3678;DHT22;1855;50.934;6.958;2023-07-13T02:34:12;16.60;68.40
3678;DHT22;1855;50.934;6.958;2023-07-13T02:36:38;16.60;69.30
3678;DHT22;1855;50.934;6.958;2023-07-13T02:39:06;16.60;69.60
3678;DHT22;1855;50.934;6.958;2023-07-13T02:41:33;16.60;69.50
3678;DHT22;1855;50.934;6.958;2023-07-13T02:44:00;16.50;69.20
3678;DHT22;1855;50.934;6.958;2023-07-13T02:46:29;16.50;69.70
3678;DHT22;1855;50.934;6.958;2023-07-13T02:48:57;16.50;69.40
3678;DHT22;1855;50.934;6.958;2023-07-13T02:51:24;16.40;69.80
3678;DHT22;1855;50.934;6.958;2023-07-13T02:53:50;16.40;69.80
3678;DHT22;1855;50.934;6.958;2023-07-13T02:56:18;16.40;71.20
3678;DHT22;1855;50.934;6.958;2023-07-13T02:58:45;16.50;71.20
3678;DHT22;1855;50.934;6.958;2023-07-13T03:01:12;16.50;70.70
3678;DHT22;1855;50.934;6.958;2023-07-13T03:03:44;16.50;70.90
3678;DHT22;1855;50.934;6.958;2023-07-13T03:06:13;16.50;71.60
3678;DHT22;1855;50.934;6.958;2023-07-13T03:08:40;16.50;71.90
3678;DHT22;1855;50.934;6.958;2023-07-13T03:11:10;16.50;70.80
3678;DHT22;1855;50.934;6.958;2023-07-13T03:13:38;16.40;70.50
3678;DHT22;1855;50.934;6.958;2023-07-13T03:16:05;16.40;70.90
3678;DHT22;1855;50.934;6.958;2023-07-13T03:18:32;16.40;71.50
3678;DHT22;1855;50.934;6.958;2023-07-13T03:20:59;16.40;71.20
3678;DHT22;1855;50.934;6.958;2023-07-13T03:23:27;16.30;71.00
3678;DHT22;1855;50.934;6.958;2023-07-13T03:26:02;16.40;70.90
3678;DHT22;1855;50.934;6.958;2023-07-13T03:28:29;16.30;70.80
3678;DHT22;1855;50.934;6.958;2023-07-13T03:31:00;16.40;70.90
3678;DHT22;1855;50.934;6.958;2023-07-13T03:33:27;16.30;70.70
3678;DHT22;1855;50.934;6.958;2023-07-13T03:35:53;16.30;70.60
3678;DHT22;1855;50.934;6.958;2023-07-13T03:38:20;16.30;70.70
3678;DHT22;1855;50.934;6.958;2023-07-13T03:40:49;16.30;70.40
3678;DHT22;1855;50.934;6.958;2023-07-13T03:43:15;16.30;70.80
3678;DHT22;1855;50.934;6.958;2023-07-13T03:45:42;16.20;70.60
3678;DHT22;1855;50.934;6.958;2023-07-13T03:48:09;16.20;71.00
3678;DHT22;1855;50.934;6.958;2023-07-13T03:50:36;16.20;71.10
3678;DHT22;1855;50.934;6.958;2023-07-13T03:53:04;16.20;71.20
3678;DHT22;1855;50.934;6.958;2023-07-13T03:55:31;16.20;71.50
3678;DHT22;1855;50.934;6.958;2023-07-13T03:58:27;16.20;71.90
3678;DHT22;1855;50.934;6.958;2023-07-13T04:00:55;16.20;72.40
3678;DHT22;1855;50.934;6.958;2023-07-13T04:03:22;16.20;72.50
3678;DHT22;1855;50.934;6.958;2023-07-13T04:05:49;16.20;72.30
3678;DHT22;1855;50.934;6.958;2023-07-13T04:08:16;16.20;72.90
3678;DHT22;1855;50.934;6.958;2023-07-13T04:10:44;16.20;72.70
3678;DHT22;1855;50.934;6.958;2023-07-13T04:13:12;16.20;72.90
3678;DHT22;1855;50.934;6.958;2023-07-13T04:15:40;16.20;72.70
3678;DHT22;1855;50.934;6.958;2023-07-13T04:18:07;16.20;73.20
3678;DHT22;1855;50.934;6.958;2023-07-13T04:20:34;16.20;73.30
3678;DHT22;1855;50.934;6.958;2023-07-13T04:23:01;16.20;73.50
3678;DHT22;1855;50.934;6.958;2023-07-13T04:25:28;16.20;74.10
3678;DHT22;1855;50.934;6.958;2023-07-13T04:27:55;16.20;73.80
3678;DHT22;1855;50.934;6.958;2023-07-13T04:30:23;16.20;74.10
3678;DHT22;1855;50.934;6.958;2023-07-13T04:32:51;16.20;74.20
3678;DHT22;1855;50.934;6.958;2023-07-13T04:35:18;16.20;74.60
3678;DHT22;1855;50.934;6.958;2023-07-13T04:37:49;16.20;74.60
3678;DHT22;1855;50.934;6.958;2023-07-13T04:40:16;16.20;74.80
3678;DHT22;1855;50.934;6.958;2023-07-13T04:42:44;16.20;75.00
3678;DHT22;1855;50.934;6.958;2023-07-13T04:45:12;16.20;75.20
3678;DHT22;1855;50.934;6.958;2023-07-13T04:47:40;16.20;75.30
3678;DHT22;1855;50.934;6.958;2023-07-13T04:50:09;16.20;75.80
3678;DHT22;1855;50.934;6.958;2023-07-13T04:52:36;16.20;76.30
3678;DHT22;1855;50.934;6.958;2023-07-13T04:55:04;16.20;76.10
3678;DHT22;1855;50.934;6.958;2023-07-13T04:57:31;16.30;75.50
3678;DHT22;1855;50.934;6.958;2023-07-13T04:59:59;16.30;76.00
3678;DHT22;1855;50.934;6.958;2023-07-13T05:02:26;16.30;75.40
3678;DHT22;1855;50.934;6.958;2023-07-13T05:04:55;16.30;75.60
3678;DHT22;1855;50.934;6.958;2023-07-13T05:07:21;16.30;75.80
3678;DHT22;1855;50.934;6.958;2023-07-13T05:09:48;16.30;75.80
3678;DHT22;1855;50.934;6.958;2023-07-13T05:12:15;16.30;76.10
3678;DHT22;1855;50.934;6.958;2023-07-13T05:14:42;16.30;76.40
3678;DHT22;1855;50.934;6.958;2023-07-13T05:17:08;16.30;76.30
3678;DHT22;1855;50.934;6.958;2023-07-13T05:19:36;16.30;76.70
3678;DHT22;1855;50.934;6.958;2023-07-13T05:22:04;16.30;77.00
3678;DHT22;1855;50.934;6.958;2023-07-13T05:24:31;16.40;77.00
3678;DHT22;1855;50.934;6.958;2023-07-13T05:26:58;16.40;77.10
3678;DHT22;1855;50.934;6.958;2023-07-13T05:29:25;16.40;77.20
3678;DHT22;1855;50.934;6.958;2023-07-13T05:31:52;16.40;77.20
3678;DHT22;1855;50.934;6.958;2023-07-13T05:34:19;16.40;77.40
3678;DHT22;1855;50.934;6.958;2023-07-13T05:36:46;16.50;77.20
3678;DHT22;1855;50.934;6.958;2023-07-13T05:39:14;16.50;77.20
3678;DHT22;1855;50.934;6.958;2023-07-13T05:41:40;16.60;76.90
3678;DHT22;1855;50.934;6.958;2023-07-13T05:44:07;16.70;76.70
3678;DHT22;1855;50.934;6.958;2023-07-13T05:46:34;16.70;76.70
3678;DHT22;1855;50.934;6.958;2023-07-13T05:49:00;16.80;76.80
3678;DHT22;1855;50.934;6.958;2023-07-13T05:51:28;16.90;76.40
3678;DHT22;1855;50.934;6.958;2023-07-13T05:53:55;17.00;75.90
3678;DHT22;1855;50.934;6.958;2023-07-13T05:56:23;17.10;76.60
3678;DHT22;1855;50.934;6.958;2023-07-13T05:58:50;17.10;75.80
3678;DHT22;1855;50.934;6.958;2023-07-13T06:01:17;17.20;77.20
3678;DHT22;1855;50.934;6.958;2023-07-13T06:03:45;17.20;75.90
3678;DHT22;1855;50.934;6.958;2023-07-13T06:06:12;17.30;75.20
3678;DHT22;1855;50.934;6.958;2023-07-13T06:08:39;17.30;75.70
3678;DHT22;1855;50.934;6.958;2023-07-13T06:11:07;17.30;75.70
3678;DHT22;1855;50.934;6.958;2023-07-13T06:13:35;17.30;75.70
3678;DHT22;1855;50.934;6.958;2023-07-13T06:16:03;17.40;76.30
3678;DHT22;1855;50.934;6.958;2023-07-13T06:18:30;17.40;76.10
3678;DHT22;1855;50.934;6.958;2023-07-13T06:20:57;17.40;76.10
3678;DHT22;1855;50.934;6.958;2023-07-13T06:23:25;17.40;76.30
3678;DHT22;1855;50.934;6.958;2023-07-13T06:25:52;17.40;76.50
3678;DHT22;1855;50.934;6.958;2023-07-13T06:28:19;17.30;76.90
3678;DHT22;1855;50.934;6.958;2023-07-13T06:30:47;17.40;76.90
3678;DHT22;1855;50.934;6.958;2023-07-13T06:33:13;17.40;77.40
3678;DHT22;1855;50.934;6.958;2023-07-13T06:35:40;17.40;77.00
3678;DHT22;1855;50.934;6.958;2023-07-13T06:38:07;17.40;77.20
3678;DHT22;1855;50.934;6.958;2023-07-13T06:40:34;17.50;77.10
3678;DHT22;1855;50.934;6.958;2023-07-13T06:43:00;17.50;77.10
3678;DHT22;1855;50.934;6.958;2023-07-13T06:45:27;17.50;77.30
3678;DHT22;1855;50.934;6.958;2023-07-13T06:47:55;17.60;77.30
3678;DHT22;1855;50.934;6.958;2023-07-13T06:50:22;17.60;76.80
3678;DHT22;1855;50.934;6.958;2023-07-13T06:52:48;17.70;76.50
3678;DHT22;1855;50.934;6.958;2023-07-13T06:55:15;17.80;76.50
3678;DHT22;1855;50.934;6.958;2023-07-13T06:57:42;17.90;76.50
3678;DHT22;1855;50.934;6.958;2023-07-13T07:00:10;18.00;75.40
3678;DHT22;1855;50.934;6.958;2023-07-13T07:02:37;18.10;75.10
3678;DHT22;1855;50.934;6.958;2023-07-13T07:05:06;18.20;74.20
3678;DHT22;1855;50.934;6.958;2023-07-13T07:07:32;18.30;74.40
3678;DHT22;1855;50.934;6.958;2023-07-13T07:09:59;18.40;73.70
3678;DHT22;1855;50.934;6.958;2023-07-13T07:12:26;18.40;73.50
3678;DHT22;1855;50.934;6.958;2023-07-13T07:14:52;18.50;73.40
3678;DHT22;1855;50.934;6.958;2023-07-13T07:17:19;18.60;72.60
3678;DHT22;1855;50.934;6.958;2023-07-13T07:19:46;18.70;72.30
3678;DHT22;1855;50.934;6.958;2023-07-13T07:22:14;18.80;72.90
3678;DHT22;1855;50.934;6.958;2023-07-13T07:24:41;18.90;72.80
3678;DHT22;1855;50.934;6.958;2023-07-13T07:27:07;19.00;70.40
3678;DHT22;1855;50.934;6.958;2023-07-13T07:29:34;19.00;71.20
3678;DHT22;1855;50.934;6.958;2023-07-13T07:32:01;19.00;70.60
3678;DHT22;1855;50.934;6.958;2023-07-13T07:34:27;19.10;70.80
3678;DHT22;1855;50.934;6.958;2023-07-13T07:36:54;19.20;70.30
3678;DHT22;1855;50.934;6.958;2023-07-13T07:39:22;19.20;69.60
3678;DHT22;1855;50.934;6.958;2023-07-13T07:41:49;19.20;69.50
3678;DHT22;1855;50.934;6.958;2023-07-13T07:44:16;19.20;69.20
3678;DHT22;1855;50.934;6.958;2023-07-13T07:46:42;19.20;69.80
3678;DHT22;1855;50.934;6.958;2023-07-13T07:49:09;19.40;69.30
3678;DHT22;1855;50.934;6.958;2023-07-13T07:51:36;19.40;68.40
3678;DHT22;1855;50.934;6.958;2023-07-13T07:54:03;19.40;69.30
3678;DHT22;1855;50.934;6.958;2023-07-13T07:56:31;19.40;69.90
3678;DHT22;1855;50.934;6.958;2023-07-13T07:58:58;19.40;70.30
3678;DHT22;1855;50.934;6.958;2023-07-13T08:01:25;19.60;69.90
3678;DHT22;1855;50.934;6.958;2023-07-13T08:03:51;19.70;67.90
3678;DHT22;1855;50.934;6.958;2023-07-13T08:06:18;19.80;67.40
3678;DHT22;1855;50.934;6.958;2023-07-13T08:08:45;19.80;67.40
3678;DHT22;1855;50.934;6.958;2023-07-13T08:11:12;19.90;67.20
3678;DHT22;1855;50.934;6.958;2023-07-13T08:13:40;19.80;66.90
3678;DHT22;1855;50.934;6.958;2023-07-13T08:16:07;19.80;66.80
3678;DHT22;1855;50.934;6.958;2023-07-13T08:18:34;19.80;67.30
3678;DHT22;1855;50.934;6.958;2023-07-13T08:21:04;19.90;66.90
3678;DHT22;1855;50.934;6.958;2023-07-13T08:23:31;20.00;66.90
3678;DHT22;1855;50.934;6.958;2023-07-13T08:25:57;20.00;66.50
3678;DHT22;1855;50.934;6.958;2023-07-13T08:28:27;20.00;66.70
3678;DHT22;1855;50.934;6.958;2023-07-13T08:30:55;20.00;66.70
3678;DHT22;1855;50.934;6.958;2023-07-13T08:33:26;20.10;66.30
3678;DHT22;1855;50.934;6.958;2023-07-13T08:35:53;20.10;66.30
3678;DHT22;1855;50.934;6.958;2023-07-13T08:38:19;20.20;65.30
3678;DHT22;1855;50.934;6.958;2023-07-13T08:40:50;20.30;65.30
3678;DHT22;1855;50.934;6.958;2023-07-13T08:43:22;20.40;64.60
3678;DHT22;1855;50.934;6.958;2023-07-13T08:45:53;20.50;65.30
3678;DHT22;1855;50.934;6.958;2023-07-13T08:48:26;20.70;63.20
3678;DHT22;1855;50.934;6.958;2023-07-13T08:50:58;20.60;62.70
3678;DHT22;1855;50.934;6.958;2023-07-13T08:53:32;20.60;62.60
3678;DHT22;1855;50.934;6.958;2023-07-13T08:56:01;20.60;62.30
3678;DHT22;1855;50.934;6.958;2023-07-13T08:58:28;20.60;63.70
3678;DHT22;1855;50.934;6.958;2023-07-13T09:01:00;20.80;62.70
3678;DHT22;1855;50.934;6.958;2023-07-13T09:03:37;20.80;62.60
3678;DHT22;1855;50.934;6.958;2023-07-13T09:06:08;20.80;62.30
3678;DHT22;1855;50.934;6.958;2023-07-13T09:08:44;20.70;62.80
3678;DHT22;1855;50.934;6.958;2023-07-13T09:11:20;20.80;62.00
3678;DHT22;1855;50.934;6.958;2023-07-13T09:13:56;20.80;61.30
3678;DHT22;1855;50.934;6.958;2023-07-13T09:16:27;20.80;61.30
3678;DHT22;1855;50.934;6.958;2023-07-13T09:18:59;20.80;61.50
3678;DHT22;1855;50.934;6.958;2023-07-13T09:21:31;20.90;61.20
3678;DHT22;1855;50.934;6.958;2023-07-13T09:24:01;21.00;60.00
3678;DHT22;1855;50.934;6.958;2023-07-13T09:26:30;21.00;60.20
3678;DHT22;1855;50.934;6.958;2023-07-13T09:29:03;21.10;59.60
3678;DHT22;1855;50.934;6.958;2023-07-13T09:31:33;21.20;59.70
3678;DHT22;1855;50.934;6.958;2023-07-13T09:34:02;21.30;58.80
3678;DHT22;1855;50.934;6.958;2023-07-13T09:36:32;21.50;58.60
3678;DHT22;1855;50.934;6.958;2023-07-13T09:39:04;21.70;58.40
3678;DHT22;1855;50.934;6.958;2023-07-13T09:41:37;21.90;56.80
3678;DHT22;1855;50.934;6.958;2023-07-13T09:44:09;22.00;57.30
3678;DHT22;1855;50.934;6.958;2023-07-13T09:46:37;22.30;54.10
3678;DHT22;1855;50.934;6.958;2023-07-13T09:49:07;22.10;54.30
3678;DHT22;1855;50.934;6.958;2023-07-13T09:51:36;22.20;54.00
3678;DHT22;1855;50.934;6.958;2023-07-13T09:54:03;22.20;53.50
3678;DHT22;1855;50.934;6.958;2023-07-13T09:56:30;22.20;52.90
3678;DHT22;1855;50.934;6.958;2023-07-13T09:58:57;22.30;53.10
3678;DHT22;1855;50.934;6.958;2023-07-13T10:01:35;22.40;52.40
3678;DHT22;1855;50.934;6.958;2023-07-13T10:04:11;22.50;52.50
3678;DHT22;1855;50.934;6.958;2023-07-13T10:06:39;22.60;50.30
3678;DHT22;1855;50.934;6.958;2023-07-13T10:09:09;22.70;49.70
3678;DHT22;1855;50.934;6.958;2023-07-13T10:11:37;22.70;49.50
3678;DHT22;1855;50.934;6.958;2023-07-13T10:14:11;22.60;49.70
3678;DHT22;1855;50.934;6.958;2023-07-13T10:16:40;22.60;48.00
3678;DHT22;1855;50.934;6.958;2023-07-13T10:19:13;22.60;47.90
3678;DHT22;1855;50.934;6.958;2023-07-13T10:21:52;22.40;48.70
3678;DHT22;1855;50.934;6.958;2023-07-13T10:24:21;22.40;49.60
3678;DHT22;1855;50.934;6.958;2023-07-13T10:26:53;22.40;50.30
3678;DHT22;1855;50.934;6.958;2023-07-13T10:29:24;22.60;50.30
3678;DHT22;1855;50.934;6.958;2023-07-13T10:31:52;22.80;49.10
3678;DHT22;1855;50.934;6.958;2023-07-13T10:34:20;22.80;47.80
3678;DHT22;1855;50.934;6.958;2023-07-13T10:36:49;22.80;47.40
3678;DHT22;1855;50.934;6.958;2023-07-13T10:39:18;22.80;47.60
3678;DHT22;1855;50.934;6.958;2023-07-13T10:41:48;22.90;48.40
3678;DHT22;1855;50.934;6.958;2023-07-13T10:44:21;22.90;47.40
3678;DHT22;1855;50.934;6.958;2023-07-13T10:46:53;23.00;47.70
3678;DHT22;1855;50.934;6.958;2023-07-13T10:49:23;23.10;47.40
3678;DHT22;1855;50.934;6.958;2023-07-13T10:51:50;23.10;48.40
3678;DHT22;1855;50.934;6.958;2023-07-13T10:54:20;23.10;48.60
3678;DHT22;1855;50.934;6.958;2023-07-13T10:56:51;23.30;47.60
3678;DHT22;1855;50.934;6.958;2023-07-13T10:59:23;23.40;46.80
3678;DHT22;1855;50.934;6.958;2023-07-13T11:01:55;23.50;46.70
3678;DHT22;1855;50.934;6.958;2023-07-13T11:04:24;23.50;47.00
3678;DHT22;1855;50.934;6.958;2023-07-13T11:06:56;23.60;45.30
3678;DHT22;1855;50.934;6.958;2023-07-13T11:09:37;23.60;45.20
3678;DHT22;1855;50.934;6.958;2023-07-13T11:12:25;23.30;46.60
3678;DHT22;1855;50.934;6.958;2023-07-13T11:15:03;23.10;46.70
3678;DHT22;1855;50.934;6.958;2023-07-13T11:17:37;22.80;48.30
3678;DHT22;1855;50.934;6.958;2023-07-13T11:20:35;22.70;48.80
3678;DHT22;1855;50.934;6.958;2023-07-13T11:23:26;22.60;48.60
3678;DHT22;1855;50.934;6.958;2023-07-13T11:25:53;22.50;49.50
3678;DHT22;1855;50.934;6.958;2023-07-13T11:28:25;22.50;50.30
3678;DHT22;1855;50.934;6.958;2023-07-13T11:31:14;22.60;50.00
3678;DHT22;1855;50.934;6.958;2023-07-13T11:33:53;22.70;50.00
3678;DHT22;1855;50.934;6.958;2023-07-13T11:36:24;22.80;47.80
3678;DHT22;1855;50.934;6.958;2023-07-13T11:39:00;22.90;46.80
3678;DHT22;1855;50.934;6.958;2023-07-13T11:41:29;22.80;46.10
3678;DHT22;1855;50.934;6.958;2023-07-13T11:44:06;22.70;46.60
3678;DHT22;1855;50.934;6.958;2023-07-13T11:46:33;22.50;48.00
3678;DHT22;1855;50.934;6.958;2023-07-13T11:48:59;22.40;48.90
3678;DHT22;1855;50.934;6.958;2023-07-13T11:51:29;22.40;49.30
3678;DHT22;1855;50.934;6.958;2023-07-13T11:54:01;22.40;49.10
3678;DHT22;1855;50.934;6.958;2023-07-13T11:56:29;22.40;49.70
3678;DHT22;1855;50.934;6.958;2023-07-13T11:59:02;22.50;49.80
3678;DHT22;1855;50.934;6.958;2023-07-13T12:01:31;22.50;50.30
3678;DHT22;1855;50.934;6.958;2023-07-13T12:03:59;22.50;50.90
3678;DHT22;1855;50.934;6.958;2023-07-13T12:06:30;22.60;51.30
3678;DHT22;1855;50.934;6.958;2023-07-13T12:08:58;22.70;48.90
3678;DHT22;1855;50.934;6.958;2023-07-13T12:11:26;22.90;48.00
3678;DHT22;1855;50.934;6.958;2023-07-13T12:13:53;22.90;47.10
3678;DHT22;1855;50.934;6.958;2023-07-13T12:16:28;22.80;47.80
3678;DHT22;1855;50.934;6.958;2023-07-13T12:18:56;22.80;46.20
3678;DHT22;1855;50.934;6.958;2023-07-13T12:21:31;22.80;46.50
3678;DHT22;1855;50.934;6.958;2023-07-13T12:23:58;22.70;46.50
3678;DHT22;1855;50.934;6.958;2023-07-13T12:26:28;22.60;47.10
3678;DHT22;1855;50.934;6.958;2023-07-13T12:28:56;22.60;47.20
3678;DHT22;1855;50.934;6.958;2023-07-13T12:31:29;22.70;46.80
3678;DHT22;1855;50.934;6.958;2023-07-13T12:33:57;22.90;45.60
3678;DHT22;1855;50.934;6.958;2023-07-13T12:36:25;23.00;44.50
3678;DHT22;1855;50.934;6.958;2023-07-13T12:38:53;23.10;45.10
3678;DHT22;1855;50.934;6.958;2023-07-13T12:41:20;23.70;44.60
3678;DHT22;1855;50.934;6.958;2023-07-13T12:43:48;24.40;43.50
3678;DHT22;1855;50.934;6.958;2023-07-13T12:46:18;25.20;40.30
3678;DHT22;1855;50.934;6.958;2023-07-13T12:48:49;25.40;38.80
3678;DHT22;1855;50.934;6.958;2023-07-13T12:51:16;25.00;38.40
3678;DHT22;1855;50.934;6.958;2023-07-13T12:53:48;24.60;39.00
3678;DHT22;1855;50.934;6.958;2023-07-13T12:56:20;24.20;39.90
3678;DHT22;1855;50.934;6.958;2023-07-13T12:58:50;23.90;40.80
3678;DHT22;1855;50.934;6.958;2023-07-13T13:01:21;23.70;41.10
3678;DHT22;1855;50.934;6.958;2023-07-13T13:03:52;23.60;41.90
3678;DHT22;1855;50.934;6.958;2023-07-13T13:06:22;23.60;43.00
3678;DHT22;1855;50.934;6.958;2023-07-13T13:08:51;23.60;42.20
3678;DHT22;1855;50.934;6.958;2023-07-13T13:11:20;23.80;42.00
3678;DHT22;1855;50.934;6.958;2023-07-13T13:13:48;24.20;41.70
3678;DHT22;1855;50.934;6.958;2023-07-13T13:16:20;24.70;39.90
3678;DHT22;1855;50.934;6.958;2023-07-13T13:18:47;25.30;38.70
3678;DHT22;1855;50.934;6.958;2023-07-13T13:21:15;25.90;37.30
3678;DHT22;1855;50.934;6.958;2023-07-13T13:23:42;26.20;36.90
3678;DHT22;1855;50.934;6.958;2023-07-13T13:26:11;26.40;35.80
3678;DHT22;1855;50.934;6.958;2023-07-13T13:28:39;26.60;35.20
3678;DHT22;1855;50.934;6.958;2023-07-13T13:31:08;26.90;34.60
3678;DHT22;1855;50.934;6.958;2023-07-13T13:33:39;27.20;33.40
3678;DHT22;1855;50.934;6.958;2023-07-13T13:36:13;27.70;33.60
3678;DHT22;1855;50.934;6.958;2023-07-13T13:38:42;28.10;32.10
3678;DHT22;1855;50.934;6.958;2023-07-13T13:41:10;28.20;31.90
3678;DHT22;1855;50.934;6.958;2023-07-13T13:43:40;28.10;33.20
3678;DHT22;1855;50.934;6.958;2023-07-13T13:46:14;28.60;31.00
3678;DHT22;1855;50.934;6.958;2023-07-13T13:48:42;28.60;31.00
3678;DHT22;1855;50.934;6.958;2023-07-13T13:51:15;28.60;31.30
3678;DHT22;1855;50.934;6.958;2023-07-13T13:53:42;28.80;31.70
3678;DHT22;1855;50.934;6.958;2023-07-13T13:56:09;29.00;31.30
3678;DHT22;1855;50.934;6.958;2023-07-13T13:58:36;28.90;30.70
3678;DHT22;1855;50.934;6.958;2023-07-13T14:01:05;28.70;30.90
3678;DHT22;1855;50.934;6.958;2023-07-13T14:03:34;28.30;31.10
3678;DHT22;1855;50.934;6.958;2023-07-13T14:06:00;28.00;32.20
3678;DHT22;1855;50.934;6.958;2023-07-13T14:08:27;28.20;31.30
3678;DHT22;1855;50.934;6.958;2023-07-13T14:10:56;28.00;31.90
3678;DHT22;1855;50.934;6.958;2023-07-13T14:13:26;28.10;32.30
3678;DHT22;1855;50.934;6.958;2023-07-13T14:15:54;28.30;31.70
3678;DHT22;1855;50.934;6.958;2023-07-13T14:18:22;28.70;30.60
3678;DHT22;1855;50.934;6.958;2023-07-13T14:20:49;28.60;31.00
3678;DHT22;1855;50.934;6.958;2023-07-13T14:23:18;28.40;31.30
3678;DHT22;1855;50.934;6.958;2023-07-13T14:25:45;28.30;31.40
3678;DHT22;1855;50.934;6.958;2023-07-13T14:28:20;28.50;31.30
3678;DHT22;1855;50.934;6.958;2023-07-13T14:30:47;28.90;30.60
3678;DHT22;1855;50.934;6.958;2023-07-13T14:33:14;29.20;29.80
3678;DHT22;1855;50.934;6.958;2023-07-13T14:35:42;29.10;29.90
3678;DHT22;1855;50.934;6.958;2023-07-13T14:38:12;28.80;30.00
3678;DHT22;1855;50.934;6.958;2023-07-13T14:40:40;28.70;31.70
3678;DHT22;1855;50.934;6.958;2023-07-13T14:43:10;28.20;30.70
3678;DHT22;1855;50.934;6.958;2023-07-13T14:45:40;27.60;32.20
3678;DHT22;1855;50.934;6.958;2023-07-13T14:48:14;27.30;32.50
3678;DHT22;1855;50.934;6.958;2023-07-13T14:50:43;27.40;33.00
3678;DHT22;1855;50.934;6.958;2023-07-13T14:53:10;27.20;33.00
3678;DHT22;1855;50.934;6.958;2023-07-13T14:55:37;26.80;34.10
3678;DHT22;1855;50.934;6.958;2023-07-13T14:58:04;26.60;33.50
3678;DHT22;1855;50.934;6.958;2023-07-13T15:00:31;26.70;34.10
3678;DHT22;1855;50.934;6.958;2023-07-13T15:02:59;26.70;33.60
3678;DHT22;1855;50.934;6.958;2023-07-13T15:05:28;26.80;33.60
3678;DHT22;1855;50.934;6.958;2023-07-13T15:07:59;27.10;34.70
3678;DHT22;1855;50.934;6.958;2023-07-13T15:10:27;27.60;32.50
3678;DHT22;1855;50.934;6.958;2023-07-13T15:12:58;27.90;32.10
3678;DHT22;1855;50.934;6.958;2023-07-13T15:15:27;27.90;31.00
3678;DHT22;1855;50.934;6.958;2023-07-13T15:17:54;27.90;31.00
3678;DHT22;1855;50.934;6.958;2023-07-13T15:20:25;27.80;31.50
3678;DHT22;1855;50.934;6.958;2023-07-13T15:22:53;28.00;31.00
3678;DHT22;1855;50.934;6.958;2023-07-13T15:25:23;28.50;30.70
3678;DHT22;1855;50.934;6.958;2023-07-13T15:27:51;29.20;30.00
3678;DHT22;1855;50.934;6.958;2023-07-13T15:30:18;29.50;28.30
3678;DHT22;1855;50.934;6.958;2023-07-13T15:32:46;29.40;28.70
3678;DHT22;1855;50.934;6.958;2023-07-13T15:35:17;29.10;29.00
3678;DHT22;1855;50.934;6.958;2023-07-13T15:37:44;28.50;29.60
3678;DHT22;1855;50.934;6.958;2023-07-13T15:40:13;27.90;31.00
3678;DHT22;1855;50.934;6.958;2023-07-13T15:42:42;27.30;32.40
3678;DHT22;1855;50.934;6.958;2023-07-13T15:45:17;26.80;33.00
3678;DHT22;1855;50.934;6.958;2023-07-13T15:47:44;26.40;34.30
3678;DHT22;1855;50.934;6.958;2023-07-13T15:50:13;26.10;35.20
3678;DHT22;1855;50.934;6.958;2023-07-13T15:52:40;25.90;35.60
3678;DHT22;1855;50.934;6.958;2023-07-13T15:55:10;25.60;36.10
3678;DHT22;1855;50.934;6.958;2023-07-13T15:57:38;25.40;36.70
3678;DHT22;1855;50.934;6.958;2023-07-13T16:00:14;25.10;37.40
3678;DHT22;1855;50.934;6.958;2023-07-13T16:02:43;24.80;38.10
3678;DHT22;1855;50.934;6.958;2023-07-13T16:05:09;24.60;39.10
3678;DHT22;1855;50.934;6.958;2023-07-13T16:07:36;24.40;40.60
3678;DHT22;1855;50.934;6.958;2023-07-13T16:10:03;24.20;41.70
3678;DHT22;1855;50.934;6.958;2023-07-13T16:12:30;24.10;42.10
3678;DHT22;1855;50.934;6.958;2023-07-13T16:14:59;23.90;43.10